createdAt,value
2023-03-07T00:00:22.218Z,64.48
2023-03-07T00:02:45.164Z,64.57
2023-03-07T00:04:47.881Z,64.29
2023-03-07T00:07:02.226Z,64.15
2023-03-07T00:09:05.684Z,64.12
2023-03-07T00:11:09.662Z,64.13
2023-03-07T00:13:12.611Z,63.97
2023-03-07T00:15:15.489Z,64.02
2023-03-07T00:17:18.818Z,64.18
2023-03-07T00:19:21.927Z,63.94
2023-03-07T00:21:31.429Z,63.92
2023-03-07T00:23:37.303Z,64.23
2023-03-07T00:25:42.435Z,63.91
2023-03-07T00:27:45.168Z,63.94
2023-03-07T00:29:48.762Z,63.95
2023-03-07T00:31:51.564Z,63.85
2023-03-07T00:33:55.786Z,64.02
2023-03-07T00:36:05.286Z,64.41
2023-03-07T00:38:08.051Z,64.40
2023-03-07T00:40:12.518Z,64.29
2023-03-07T00:42:15.741Z,64.10
2023-03-07T00:44:18.546Z,64.22
2023-03-07T00:46:23.066Z,64.21
2023-03-07T00:48:26.815Z,63.95
2023-03-07T00:50:29.634Z,63.96
2023-03-07T00:52:33.654Z,64.00
2023-03-07T00:54:36.631Z,63.97
2023-03-07T00:56:39.603Z,63.91
2023-03-07T00:58:42.874Z,63.96
2023-03-07T01:00:45.657Z,63.84
2023-03-07T01:02:50.822Z,63.72
2023-03-07T01:04:53.573Z,63.78
2023-03-07T01:06:56.261Z,63.83
2023-03-07T01:09:05.188Z,63.82
2023-03-07T01:11:11.717Z,63.84
2023-03-07T01:13:16.043Z,63.84
2023-03-07T01:15:18.812Z,63.64
2023-03-07T01:17:21.553Z,63.56
2023-03-07T01:19:24.786Z,63.59
2023-03-07T01:21:30.468Z,63.54
2023-03-07T01:23:35.017Z,63.54
2023-03-07T01:25:41.349Z,63.54
2023-03-07T01:27:44.810Z,63.54
2023-03-07T01:29:48.775Z,63.47
2023-03-07T01:31:51.634Z,63.57
2023-03-07T01:33:54.592Z,63.76
2023-03-07T01:35:57.546Z,63.35
2023-03-07T01:38:00.533Z,63.39
2023-03-07T01:40:05.242Z,63.37
2023-03-07T01:42:08.105Z,63.54
2023-03-07T01:44:18.528Z,63.66
2023-03-07T01:46:44.198Z,63.64
2023-03-07T01:48:53.497Z,63.58
2023-03-07T01:50:56.935Z,64.11
2023-03-07T01:53:00.622Z,63.77
2023-03-07T01:55:11.135Z,63.90
2023-03-07T01:57:18.426Z,63.60
2023-03-07T01:59:29.480Z,63.81
2023-03-07T02:01:33.451Z,64.00
2023-03-07T02:03:46.923Z,63.70
2023-03-07T02:05:59.697Z,64.04
2023-03-07T02:08:02.981Z,63.86
2023-03-07T02:10:07.999Z,63.80
2023-03-07T02:12:11.267Z,64.20
2023-03-07T02:14:15.271Z,63.87
2023-03-07T02:16:18.639Z,64.03
2023-03-07T02:18:28.183Z,63.90
2023-03-07T02:20:59.195Z,64.11
2023-03-07T02:23:04.543Z,64.06
2023-03-07T02:25:23.151Z,64.03
2023-03-07T02:27:32.423Z,64.10
2023-03-07T02:29:35.235Z,64.15
2023-03-07T02:31:38.247Z,64.38
2023-03-07T02:33:41.102Z,64.35
2023-03-07T02:35:45.824Z,64.57
2023-03-07T02:37:53.812Z,64.39
2023-03-07T02:40:00.010Z,64.53
2023-03-07T02:42:14.500Z,64.79
2023-03-07T02:44:22.949Z,64.65
2023-03-07T02:46:25.923Z,65.00
2023-03-07T02:48:28.707Z,65.17
2023-03-07T02:50:31.801Z,65.29
2023-03-07T02:52:34.817Z,65.44
2023-03-07T02:54:38.189Z,65.43
2023-03-07T02:56:41.778Z,65.59
2023-03-07T02:58:46.509Z,65.47
2023-03-07T03:00:49.942Z,65.79
2023-03-07T03:02:52.952Z,66.04
2023-03-07T03:04:56.227Z,66.17
2023-03-07T03:06:59.225Z,66.08
2023-03-07T03:09:02.155Z,66.08
2023-03-07T03:11:04.989Z,66.44
2023-03-07T03:13:08.343Z,66.10
2023-03-07T03:15:11.432Z,66.40
2023-03-07T03:17:14.018Z,66.56
2023-03-07T03:19:17.941Z,66.66
2023-03-07T03:21:21.365Z,66.71
2023-03-07T03:23:27.498Z,66.37
2023-03-07T03:25:30.681Z,66.34
2023-03-07T03:27:34.368Z,66.34
2023-03-07T03:29:38.913Z,66.22
2023-03-07T03:31:44.763Z,66.30
2023-03-07T03:33:49.364Z,66.64
2023-03-07T03:35:52.330Z,66.61
2023-03-07T03:37:56.503Z,66.36
2023-03-07T03:40:00.709Z,66.42
2023-03-07T03:42:03.878Z,66.52
2023-03-07T03:44:08.470Z,66.88
2023-03-07T03:46:11.402Z,66.85
2023-03-07T03:48:14.050Z,66.83
2023-03-07T03:50:18.752Z,66.82
2023-03-07T03:52:23.721Z,67.00
2023-03-07T03:54:27.092Z,67.04
2023-03-07T03:56:30.402Z,67.35
2023-03-07T03:58:34.032Z,67.45
2023-03-07T04:00:36.951Z,67.53
2023-03-07T04:02:40.018Z,67.56
2023-03-07T04:04:43.502Z,67.64
2023-03-07T04:06:46.531Z,67.46
2023-03-07T04:08:52.195Z,67.66
2023-03-07T04:10:55.217Z,67.57
2023-03-07T04:12:57.912Z,67.68
2023-03-07T04:15:00.908Z,67.74
2023-03-07T04:17:06.687Z,67.58
2023-03-07T04:19:13.451Z,67.61
2023-03-07T04:21:20.162Z,67.85
2023-03-07T04:23:24.732Z,67.81
2023-03-07T04:25:27.513Z,67.86
2023-03-07T04:27:30.343Z,68.12
2023-03-07T04:29:33.624Z,68.20
2023-03-07T04:31:41.999Z,68.17
2023-03-07T04:33:46.620Z,68.23
2023-03-07T04:35:49.233Z,68.42
2023-03-07T04:37:51.912Z,68.65
2023-03-07T04:39:54.802Z,68.45
2023-03-07T04:41:57.626Z,68.45
2023-03-07T04:44:01.898Z,68.13
2023-03-07T04:46:05.009Z,68.29
2023-03-07T04:48:08.153Z,68.04
2023-03-07T04:50:13.295Z,68.31
2023-03-07T04:52:18.160Z,68.22
2023-03-07T04:54:22.425Z,68.26
2023-03-07T04:56:26.255Z,68.17
2023-03-07T04:58:34.080Z,68.00
2023-03-07T05:00:36.920Z,67.95
2023-03-07T05:02:40.035Z,68.22
2023-03-07T05:04:43.331Z,68.02
2023-03-07T05:06:47.120Z,68.24
2023-03-07T05:08:50.620Z,68.02
2023-03-07T05:10:54.054Z,68.31
2023-03-07T05:12:57.364Z,68.15
2023-03-07T05:15:00.985Z,68.30
2023-03-07T05:17:03.893Z,67.98
2023-03-07T05:19:06.876Z,68.26
2023-03-07T05:21:10.477Z,68.29
2023-03-07T05:23:18.791Z,68.20
2023-03-07T05:25:24.414Z,68.28
2023-03-07T05:27:27.344Z,68.58
2023-03-07T05:29:30.639Z,68.26
2023-03-07T05:31:34.300Z,68.15
2023-03-07T05:33:37.106Z,68.22
2023-03-07T05:35:40.481Z,68.05
2023-03-07T05:37:44.753Z,68.20
2023-03-07T05:39:48.659Z,68.33
2023-03-07T05:41:51.380Z,68.36
2023-03-07T05:43:55.352Z,68.42
2023-03-07T05:45:58.642Z,68.39
2023-03-07T05:48:03.956Z,68.54
2023-03-07T05:50:07.983Z,68.41
2023-03-07T05:52:11.268Z,68.53
2023-03-07T05:54:16.195Z,68.54
2023-03-07T05:56:20.462Z,68.42
2023-03-07T05:58:23.490Z,68.64
2023-03-07T06:00:26.927Z,68.10
2023-03-07T06:02:32.120Z,68.46
2023-03-07T06:04:34.848Z,68.57
2023-03-07T06:06:37.659Z,68.36
2023-03-07T06:08:40.566Z,68.36
2023-03-07T06:10:50.084Z,68.07
2023-03-07T06:12:53.833Z,68.10
2023-03-07T06:14:56.509Z,68.31
2023-03-07T06:16:59.089Z,68.42
2023-03-07T06:19:01.918Z,68.30
2023-03-07T06:21:07.224Z,68.35
2023-03-07T06:23:14.783Z,68.16
2023-03-07T06:25:21.582Z,68.48
2023-03-07T06:27:25.186Z,68.34
2023-03-07T06:29:30.716Z,68.45
2023-03-07T06:31:33.842Z,68.27
2023-03-07T06:33:36.708Z,68.42
2023-03-07T06:35:42.376Z,68.47
2023-03-07T06:37:47.190Z,68.34
2023-03-07T06:39:51.810Z,68.55
2023-03-07T06:41:55.379Z,68.21
2023-03-07T06:43:58.167Z,68.06
2023-03-07T06:46:05.714Z,68.32
2023-03-07T06:48:12.777Z,68.25
2023-03-07T06:50:19.325Z,68.00
2023-03-07T06:52:26.674Z,68.08
2023-03-07T06:54:29.471Z,67.99
2023-03-07T06:56:34.352Z,68.10
2023-03-07T06:58:37.269Z,68.05
2023-03-07T07:00:40.048Z,68.14
2023-03-07T07:02:43.639Z,68.24
2023-03-07T07:04:46.415Z,68.13
2023-03-07T07:06:50.145Z,68.31
2023-03-07T07:08:55.979Z,68.21
2023-03-07T07:11:00.312Z,68.22
2023-03-07T07:13:04.653Z,67.99
2023-03-07T07:15:08.522Z,68.14
2023-03-07T07:17:12.340Z,67.93
2023-03-07T07:19:15.579Z,67.93
2023-03-07T07:21:18.615Z,67.78
2023-03-07T07:23:22.427Z,67.72
2023-03-07T07:25:25.471Z,67.92
2023-03-07T07:27:41.901Z,67.96
2023-03-07T07:29:46.005Z,68.12
2023-03-07T07:31:51.834Z,68.12
2023-03-07T07:33:55.283Z,68.02
2023-03-07T07:35:58.455Z,67.92
2023-03-07T07:38:01.293Z,67.73
2023-03-07T07:40:05.437Z,67.67
2023-03-07T07:42:08.964Z,67.74
2023-03-07T07:44:18.446Z,67.68
2023-03-07T07:46:28.974Z,67.85
2023-03-07T07:48:32.184Z,67.74
2023-03-07T07:50:35.659Z,68.11
2023-03-07T07:52:38.364Z,68.10
2023-03-07T07:54:40.977Z,67.72
2023-03-07T07:56:43.894Z,67.70
2023-03-07T07:58:48.549Z,67.73
2023-03-07T08:00:54.085Z,67.45
2023-03-07T08:02:56.726Z,67.81
2023-03-07T08:04:59.502Z,67.70
2023-03-07T08:07:03.149Z,67.69
2023-03-07T08:09:06.053Z,67.65
2023-03-07T08:11:09.184Z,67.54
2023-03-07T08:13:13.821Z,67.41
2023-03-07T08:15:17.896Z,67.64
2023-03-07T08:17:21.192Z,67.36
2023-03-07T08:19:24.802Z,67.36
2023-03-07T08:21:28.524Z,67.42
2023-03-07T08:23:31.187Z,67.22
2023-03-07T08:25:33.951Z,67.24
2023-03-07T08:27:36.709Z,67.57
2023-03-07T08:29:39.498Z,67.39
2023-03-07T08:31:46.059Z,67.40
2023-03-07T08:33:50.695Z,67.42
2023-03-07T08:35:54.056Z,67.28
2023-03-07T08:38:00.478Z,67.03
2023-03-07T08:40:06.218Z,66.84
2023-03-07T08:42:09.631Z,66.85
2023-03-07T08:44:12.254Z,66.71
2023-03-07T08:46:15.263Z,66.70
2023-03-07T08:48:20.940Z,66.56
2023-03-07T08:50:27.312Z,66.59
2023-03-07T08:52:30.069Z,66.45
2023-03-07T08:54:32.707Z,66.13
2023-03-07T08:56:35.365Z,66.16
2023-03-07T08:58:38.460Z,66.11
2023-03-07T09:00:41.733Z,66.09
2023-03-07T09:02:44.981Z,66.14
2023-03-07T09:04:47.828Z,66.10
2023-03-07T09:06:50.910Z,66.08
2023-03-07T09:08:53.792Z,65.93
2023-03-07T09:11:03.860Z,65.84
2023-03-07T09:13:06.646Z,65.87
2023-03-07T09:15:10.049Z,65.92
2023-03-07T09:17:12.751Z,65.67
2023-03-07T09:19:16.597Z,65.67
2023-03-07T09:21:21.929Z,65.43
2023-03-07T09:23:25.635Z,65.36
2023-03-07T09:25:30.424Z,65.43
2023-03-07T09:27:33.289Z,65.54
2023-03-07T09:29:37.130Z,65.45
2023-03-07T09:31:41.396Z,65.25
2023-03-07T09:33:46.970Z,65.34
2023-03-07T09:35:50.119Z,65.20
2023-03-07T09:37:53.051Z,64.93
2023-03-07T09:39:55.831Z,65.01
2023-03-07T09:42:40.413Z,64.53
2023-03-07T09:45:10.085Z,64.31
2023-03-07T09:47:55.110Z,64.61
2023-03-07T09:50:01.097Z,64.50
2023-03-07T09:52:14.036Z,64.40
2023-03-07T09:54:21.628Z,64.11
2023-03-07T09:56:30.875Z,64.35
2023-03-07T09:58:38.762Z,64.13
2023-03-07T10:00:42.987Z,64.08
2023-03-07T10:03:08.100Z,63.94
2023-03-07T10:05:33.181Z,63.77
2023-03-07T10:07:37.872Z,63.23
2023-03-07T10:09:42.245Z,62.98
2023-03-07T10:11:56.058Z,62.69
2023-03-07T10:14:27.095Z,62.52
2023-03-07T10:16:56.403Z,62.00
2023-03-07T10:19:22.201Z,61.65
2023-03-07T10:22:00.921Z,61.39
2023-03-07T10:24:14.456Z,61.43
2023-03-07T10:26:27.131Z,61.43
2023-03-07T10:28:34.761Z,61.22
2023-03-07T10:30:39.071Z,60.96
2023-03-07T10:32:53.415Z,61.01
2023-03-07T10:35:16.977Z,60.54
2023-03-07T10:37:26.501Z,60.07
2023-03-07T10:39:29.153Z,59.78
2023-03-07T10:41:31.868Z,59.96
2023-03-07T10:43:34.842Z,59.81
2023-03-07T10:45:38.555Z,60.04
2023-03-07T10:47:42.031Z,59.89
2023-03-07T10:49:47.445Z,59.91
2023-03-07T10:52:06.764Z,59.59
2023-03-07T10:54:16.776Z,58.94
2023-03-07T10:56:19.448Z,59.20
2023-03-07T10:58:27.600Z,58.98
2023-03-07T11:00:30.756Z,58.13
2023-03-07T11:02:44.684Z,58.32
2023-03-07T11:04:48.847Z,58.45
2023-03-07T11:06:58.016Z,58.43
2023-03-07T11:09:14.842Z,58.15
2023-03-07T11:11:26.299Z,58.09
2023-03-07T11:13:29.557Z,57.91
2023-03-07T11:15:32.438Z,57.70
2023-03-07T11:17:46.597Z,57.77
2023-03-07T11:19:57.834Z,57.47
2023-03-07T11:22:17.423Z,57.51
2023-03-07T11:24:26.493Z,57.17
2023-03-07T11:26:32.741Z,56.99
2023-03-07T11:28:36.216Z,57.01
2023-03-07T11:30:53.520Z,56.85
2023-03-07T11:33:14.072Z,56.46
2023-03-07T11:35:54.414Z,56.53
2023-03-07T11:38:14.021Z,56.13
2023-03-07T11:40:29.185Z,56.41
2023-03-07T11:42:39.070Z,56.46
2023-03-07T11:45:29.794Z,56.08
2023-03-07T11:47:56.227Z,56.12
2023-03-07T11:50:14.082Z,55.45
2023-03-07T11:52:46.213Z,55.25
2023-03-07T11:55:08.086Z,54.78
2023-03-07T11:57:47.116Z,55.05
2023-03-07T12:00:24.020Z,55.30
2023-03-07T12:03:08.530Z,54.98
2023-03-07T12:05:21.595Z,54.91
2023-03-07T12:07:46.257Z,54.39
2023-03-07T12:10:20.953Z,53.76
2023-03-07T12:12:58.003Z,53.36
2023-03-07T12:15:29.302Z,53.23
2023-03-07T12:18:10.136Z,53.00
2023-03-07T12:20:51.312Z,52.94
2023-03-07T12:23:42.251Z,52.98
2023-03-07T12:26:03.885Z,52.73
2023-03-07T12:28:44.831Z,52.81
2023-03-07T12:31:17.162Z,52.39
2023-03-07T12:33:47.209Z,51.94
2023-03-07T12:35:56.410Z,52.00
2023-03-07T12:38:06.888Z,52.29
2023-03-07T12:40:25.870Z,52.22
2023-03-07T12:42:32.890Z,52.03
2023-03-07T12:44:49.612Z,51.94
2023-03-07T12:47:39.602Z,51.53
2023-03-07T12:50:02.320Z,51.18
2023-03-07T12:52:11.313Z,50.87
2023-03-07T12:54:30.152Z,51.47
2023-03-07T12:57:11.885Z,51.64
2023-03-07T12:59:16.247Z,51.22
2023-03-07T13:01:35.053Z,51.19
2023-03-07T13:03:55.205Z,50.88
2023-03-07T13:05:58.408Z,50.60
2023-03-07T13:08:03.768Z,50.74
2023-03-07T13:10:14.802Z,50.60
2023-03-07T13:12:21.631Z,50.62
2023-03-07T13:14:43.745Z,50.48
2023-03-07T13:16:47.615Z,50.14
2023-03-07T13:18:50.603Z,50.43
2023-03-07T13:21:07.551Z,50.06
2023-03-07T13:23:23.564Z,49.89
2023-03-07T13:25:27.395Z,49.89
2023-03-07T13:27:47.850Z,49.99
2023-03-07T13:30:12.625Z,50.04
2023-03-07T13:32:56.463Z,49.84
2023-03-07T13:34:59.175Z,49.67
2023-03-07T13:37:40.637Z,49.77
2023-03-07T13:40:03.491Z,49.23
2023-03-07T13:42:45.021Z,49.59
2023-03-07T13:44:48.091Z,49.42
2023-03-07T13:46:54.112Z,49.52
2023-03-07T13:48:58.069Z,49.86
2023-03-07T13:51:02.188Z,49.78
2023-03-07T13:53:20.244Z,49.51
2023-03-07T13:55:26.000Z,49.65
2023-03-07T13:57:39.611Z,49.79
2023-03-07T13:59:47.565Z,49.94
2023-03-07T14:01:53.325Z,49.88
2023-03-07T14:04:38.418Z,49.90
2023-03-07T14:06:44.891Z,49.56
2023-03-07T14:08:49.871Z,49.56
2023-03-07T14:10:53.664Z,49.56
2023-03-07T14:13:05.797Z,49.50
2023-03-07T14:15:24.514Z,49.43
2023-03-07T14:17:33.639Z,49.55
2023-03-07T14:19:49.614Z,49.42
2023-03-07T14:22:03.931Z,49.89
2023-03-07T14:24:40.366Z,49.93
2023-03-07T14:26:52.983Z,49.90
2023-03-07T14:29:03.949Z,49.82
2023-03-07T14:31:22.979Z,49.70
2023-03-07T14:33:34.598Z,49.81
2023-03-07T14:35:42.101Z,49.78
2023-03-07T14:37:45.384Z,49.74
2023-03-07T14:40:00.757Z,49.63
2023-03-07T14:42:24.589Z,49.72
2023-03-07T14:44:27.264Z,49.62
2023-03-07T14:46:54.809Z,49.69
2023-03-07T14:49:38.187Z,49.75
2023-03-07T14:51:42.916Z,49.69
2023-03-07T14:53:48.696Z,49.79
2023-03-07T14:55:54.283Z,49.74
2023-03-07T14:57:57.561Z,49.67
2023-03-07T15:00:32.731Z,49.97
2023-03-07T15:02:58.029Z,49.77
2023-03-07T15:05:04.510Z,49.72
2023-03-07T15:07:11.373Z,49.91
2023-03-07T15:09:14.238Z,50.02
2023-03-07T15:11:27.820Z,49.84
2023-03-07T15:13:40.623Z,49.93
2023-03-07T15:15:48.657Z,49.98
2023-03-07T15:17:54.084Z,49.92
2023-03-07T15:20:04.654Z,50.03
2023-03-07T15:22:23.677Z,50.03
2023-03-07T15:24:34.326Z,49.75
2023-03-07T15:26:37.245Z,49.82
2023-03-07T15:28:43.949Z,49.72
2023-03-07T15:30:52.145Z,49.56
2023-03-07T15:33:10.772Z,49.95
2023-03-07T15:35:21.066Z,50.03
2023-03-07T15:37:29.657Z,50.06
2023-03-07T15:39:36.864Z,50.07
2023-03-07T15:41:39.695Z,49.86
2023-03-07T15:43:42.759Z,49.57
2023-03-07T15:46:06.965Z,50.00
2023-03-07T15:48:43.444Z,49.73
2023-03-07T15:50:59.866Z,49.47
2023-03-07T15:53:08.008Z,49.69
2023-03-07T15:55:20.246Z,49.81
2023-03-07T15:57:30.636Z,49.77
2023-03-07T15:59:36.676Z,49.83
2023-03-07T16:01:39.512Z,50.02
2023-03-07T16:04:27.563Z,50.06
2023-03-07T16:06:41.323Z,50.23
2023-03-07T16:08:48.121Z,50.12
2023-03-07T16:11:04.399Z,50.05
2023-03-07T16:13:14.169Z,50.14
2023-03-07T16:15:21.363Z,50.27
2023-03-07T16:17:33.581Z,50.15
2023-03-07T16:19:38.453Z,50.24
2023-03-07T16:21:41.389Z,50.36
2023-03-07T16:23:45.037Z,50.53
2023-03-07T16:25:47.890Z,50.51
2023-03-07T16:27:56.979Z,50.56
2023-03-07T16:30:00.696Z,51.06
2023-03-07T16:32:04.085Z,50.87
2023-03-07T16:34:15.110Z,50.71
2023-03-07T16:36:17.935Z,50.47
2023-03-07T16:38:21.435Z,50.85
2023-03-07T16:40:26.629Z,50.96
2023-03-07T16:42:30.410Z,51.03
2023-03-07T16:44:39.244Z,50.99
2023-03-07T16:46:44.706Z,51.10
2023-03-07T16:48:48.995Z,51.39
2023-03-07T16:50:51.976Z,50.71
2023-03-07T16:52:56.267Z,50.90
2023-03-07T16:54:59.078Z,50.65
2023-03-07T16:57:03.512Z,50.82
2023-03-07T16:59:08.253Z,51.11
2023-03-07T17:01:14.334Z,50.74
2023-03-07T17:03:18.477Z,51.01
2023-03-07T17:05:27.646Z,50.92
2023-03-07T17:07:31.037Z,51.02
2023-03-07T17:09:34.230Z,50.97
2023-03-07T17:11:45.301Z,51.14
2023-03-07T17:13:51.079Z,50.87
2023-03-07T17:15:53.773Z,50.98
2023-03-07T17:17:58.034Z,51.01
2023-03-07T17:20:01.322Z,51.04
2023-03-07T17:22:04.755Z,51.22
2023-03-07T17:24:08.014Z,51.07
2023-03-07T17:26:31.610Z,51.20
2023-03-07T17:28:34.727Z,50.95
2023-03-07T17:30:43.152Z,51.30
2023-03-07T17:32:50.263Z,51.27
2023-03-07T17:34:53.244Z,51.33
2023-03-07T17:36:57.516Z,51.34
2023-03-07T17:39:00.234Z,51.48
2023-03-07T17:41:05.101Z,51.75
2023-03-07T17:43:09.204Z,51.62
2023-03-07T17:45:15.157Z,51.57
2023-03-07T17:47:19.212Z,51.49
2023-03-07T17:49:23.439Z,51.60
2023-03-07T17:51:26.815Z,51.56
2023-03-07T17:53:30.025Z,51.39
2023-03-07T17:55:37.343Z,51.48
2023-03-07T17:57:47.964Z,51.34
2023-03-07T17:59:52.205Z,51.48
2023-03-07T18:01:55.963Z,51.36
2023-03-07T18:03:59.364Z,51.50
2023-03-07T18:06:08.081Z,51.39
2023-03-07T18:08:11.572Z,51.65
2023-03-07T18:10:15.533Z,51.68
2023-03-07T18:12:20.372Z,51.60
2023-03-07T18:14:24.756Z,51.80
2023-03-07T18:16:28.145Z,51.66
2023-03-07T18:18:33.335Z,51.81
2023-03-07T18:20:36.491Z,51.63
2023-03-07T18:22:42.945Z,51.99
2023-03-07T18:24:53.443Z,51.94
2023-03-07T18:26:59.680Z,52.09
2023-03-07T18:29:03.406Z,51.90
2023-03-07T18:31:13.062Z,51.76
2023-03-07T18:33:16.358Z,51.98
2023-03-07T18:35:23.554Z,52.05
2023-03-07T18:37:28.824Z,52.13
2023-03-07T18:39:33.926Z,52.16
2023-03-07T18:41:37.867Z,52.02
2023-03-07T18:43:42.227Z,51.89
2023-03-07T18:45:48.068Z,52.10
2023-03-07T18:47:51.368Z,51.88
2023-03-07T18:49:54.337Z,52.21
2023-03-07T18:51:57.598Z,52.10
2023-03-07T18:54:03.631Z,52.06
2023-03-07T18:56:10.387Z,52.29
2023-03-07T18:58:19.321Z,52.18
2023-03-07T19:00:23.588Z,52.25
2023-03-07T19:02:29.751Z,52.26
2023-03-07T19:04:33.499Z,52.17
2023-03-07T19:06:40.530Z,52.14
2023-03-07T19:08:45.644Z,52.39
2023-03-07T19:10:49.594Z,52.43
2023-03-07T19:12:53.246Z,52.19
2023-03-07T19:14:56.758Z,52.35
2023-03-07T19:16:59.961Z,52.42
2023-03-07T19:19:04.063Z,52.45
2023-03-07T19:21:13.400Z,52.65
2023-03-07T19:23:19.276Z,52.71
2023-03-07T19:25:23.322Z,52.71
2023-03-07T19:27:35.349Z,52.77
2023-03-07T19:29:42.135Z,52.94
2023-03-07T19:31:47.223Z,53.05
2023-03-07T19:33:52.306Z,53.05
2023-03-07T19:36:26.175Z,53.01
2023-03-07T19:38:34.228Z,53.32
2023-03-07T19:40:38.677Z,53.35
2023-03-07T19:42:43.914Z,53.30
2023-03-07T19:44:47.927Z,53.75
2023-03-07T19:46:52.999Z,53.65
2023-03-07T19:48:57.475Z,53.77
2023-03-07T19:51:01.117Z,54.06
2023-03-07T19:53:06.991Z,54.20
2023-03-07T19:55:22.973Z,54.11
2023-03-07T19:57:28.715Z,54.27
2023-03-07T19:59:32.905Z,54.44
2023-03-07T20:01:37.670Z,54.40
2023-03-07T20:03:44.313Z,54.44
2023-03-07T20:05:48.954Z,54.39
2023-03-07T20:07:52.736Z,54.50
2023-03-07T20:09:59.456Z,54.61
2023-03-07T20:12:02.899Z,54.69
2023-03-07T20:14:06.750Z,54.86
2023-03-07T20:16:10.757Z,54.88
2023-03-07T20:18:15.618Z,54.80
2023-03-07T20:20:20.252Z,55.06
2023-03-07T20:22:25.944Z,55.22
2023-03-07T20:24:30.046Z,55.12
2023-03-07T20:26:37.716Z,55.13
2023-03-07T20:28:45.672Z,55.15
2023-03-07T20:30:48.598Z,55.10
2023-03-07T20:32:56.217Z,55.05
2023-03-07T20:35:03.392Z,55.28
2023-03-07T20:37:07.273Z,55.46
2023-03-07T20:39:14.905Z,55.42
2023-03-07T20:41:21.170Z,55.37
2023-03-07T20:43:24.586Z,55.25
2023-03-07T20:45:28.427Z,55.38
2023-03-07T20:47:36.150Z,55.58
2023-03-07T20:49:41.255Z,55.69
2023-03-07T20:51:44.910Z,55.38
2023-03-07T20:53:59.872Z,55.57
2023-03-07T20:56:08.877Z,55.66
2023-03-07T20:58:14.275Z,55.66
2023-03-07T21:00:20.221Z,55.55
2023-03-07T21:02:23.414Z,55.65
2023-03-07T21:04:28.328Z,55.75
2023-03-07T21:06:34.189Z,55.71
2023-03-07T21:08:38.660Z,55.61
2023-03-07T21:10:42.438Z,55.76
2023-03-07T21:12:46.685Z,55.75
2023-03-07T21:14:50.225Z,55.42
2023-03-07T21:16:54.155Z,55.79
2023-03-07T21:19:01.672Z,55.70
2023-03-07T21:21:08.485Z,55.64
2023-03-07T21:23:11.519Z,55.60
2023-03-07T21:25:15.964Z,55.58
2023-03-07T21:27:18.922Z,55.64
2023-03-07T21:31:04.303Z,55.56
2023-03-07T21:33:07.589Z,55.50
2023-03-07T21:35:13.272Z,55.49
2023-03-07T21:37:18.393Z,55.57
2023-03-07T21:39:24.940Z,55.51
2023-03-07T21:41:28.221Z,55.55
2023-03-07T21:43:34.180Z,55.49
2023-03-07T21:45:37.743Z,55.60
2023-03-07T21:47:41.450Z,55.57
2023-03-07T21:49:44.712Z,55.45
2023-03-07T21:51:49.284Z,55.56
2023-03-07T21:53:53.814Z,55.69
2023-03-07T21:56:00.549Z,55.51
2023-03-07T21:58:04.025Z,55.62
2023-03-07T22:00:08.400Z,55.52
2023-03-07T22:02:13.116Z,55.62
2023-03-07T22:04:16.204Z,55.56
2023-03-07T22:06:19.754Z,55.66
2023-03-07T22:08:22.471Z,55.46
2023-03-07T22:10:26.033Z,55.57
2023-03-07T22:12:31.023Z,55.56
2023-03-07T22:14:34.141Z,55.59
2023-03-07T22:16:36.781Z,55.55
2023-03-07T22:18:39.694Z,55.52
2023-03-07T22:20:42.265Z,55.58
2023-03-07T22:22:48.149Z,55.55
2023-03-07T22:24:53.720Z,55.52
2023-03-07T22:26:56.502Z,55.36
2023-03-07T22:29:00.615Z,55.43
2023-03-07T22:31:07.094Z,55.46
2023-03-07T22:33:11.228Z,55.44
2023-03-07T22:35:15.995Z,55.38
2023-03-07T22:37:20.288Z,55.40
2023-03-07T22:39:24.607Z,55.18
2023-03-07T22:41:30.152Z,55.29
2023-03-07T22:43:34.492Z,55.42
2023-03-07T22:45:37.376Z,55.45
2023-03-07T22:47:40.191Z,55.36
2023-03-07T22:49:44.424Z,55.27
2023-03-07T22:51:47.296Z,55.25
2023-03-07T22:53:52.503Z,55.28
2023-03-07T22:55:57.405Z,55.25
2023-03-07T22:58:00.373Z,55.36
2023-03-07T23:00:04.060Z,55.41
2023-03-07T23:02:06.968Z,55.33
2023-03-07T23:04:09.861Z,55.35
2023-03-07T23:06:13.389Z,55.47
2023-03-07T23:08:18.530Z,55.36
2023-03-07T23:10:21.285Z,55.24
2023-03-07T23:12:24.227Z,55.41
2023-03-07T23:14:26.880Z,55.27
2023-03-07T23:16:31.523Z,55.32
2023-03-07T23:18:34.904Z,55.50
2023-03-07T23:20:38.812Z,55.65
2023-03-07T23:22:43.096Z,55.55
2023-03-07T23:24:48.304Z,55.57
2023-03-07T23:26:51.167Z,55.46
2023-03-07T23:28:54.329Z,55.48
2023-03-07T23:30:58.131Z,55.50
2023-03-07T23:33:02.431Z,55.69
2023-03-07T23:35:05.616Z,55.44
2023-03-07T23:37:08.298Z,55.42
2023-03-07T23:39:11.591Z,55.60
2023-03-07T23:41:14.256Z,55.60
2023-03-07T23:43:16.912Z,55.37
2023-03-07T23:45:22.051Z,55.49
2023-03-07T23:47:25.665Z,55.44
2023-03-07T23:49:29.279Z,55.60
2023-03-07T23:51:32.048Z,55.76
2023-03-07T23:53:35.023Z,55.74
2023-03-07T23:55:43.422Z,55.80
2023-03-07T23:57:46.883Z,55.59
2023-03-07T23:59:49.817Z,56.06
